sensor_id;sensor_type;location;lat;lon;timestamp;temperature;humidity
39951;DHT22;25629;51.444;-2.606;2023-06-04T00:00:39;16.10;99.90
39951;DHT22;25629;51.444;-2.606;2023-06-04T00:03:04;16.10;99.90
39951;DHT22;25629;51.444;-2.606;2023-06-04T00:05:31;16.00;1.00
39951;DHT22;25629;51.444;-2.606;2023-06-04T00:07:57;15.90;1.00
39951;DHT22;25629;51.444;-2.606;2023-06-04T00:10:22;15.80;1.00
39951;DHT22;25629;51.444;-2.606;2023-06-04T00:12:48;15.70;1.00
39951;DHT22;25629;51.444;-2.606;2023-06-04T00:15:14;15.70;1.00
39951;DHT22;25629;51.444;-2.606;2023-06-04T00:17:42;15.70;1.00
39951;DHT22;25629;51.444;-2.606;2023-06-04T00:20:08;15.60;1.00
39951;DHT22;25629;51.444;-2.606;2023-06-04T00:22:34;15.70;1.00
39951;DHT22;25629;51.444;-2.606;2023-06-04T00:25:00;15.70;1.00
39951;DHT22;25629;51.444;-2.606;2023-06-04T00:27:25;15.50;1.00
39951;DHT22;25629;51.444;-2.606;2023-06-04T00:29:51;15.50;1.00
39951;DHT22;25629;51.444;-2.606;2023-06-04T00:32:17;15.40;1.00
39951;DHT22;25629;51.444;-2.606;2023-06-04T00:34:43;15.40;7.90
39951;DHT22;25629;51.444;-2.606;2023-06-04T00:37:08;15.40;1.00
39951;DHT22;25629;51.444;-2.606;2023-06-04T00:39:34;15.30;19.80
39951;DHT22;25629;51.444;-2.606;2023-06-04T00:42:00;15.20;55.60
39951;DHT22;25629;51.444;-2.606;2023-06-04T00:44:26;15.10;92.60
39951;DHT22;25629;51.444;-2.606;2023-06-04T00:46:52;15.10;99.90
39951;DHT22;25629;51.444;-2.606;2023-06-04T00:49:21;15.20;99.90
39951;DHT22;25629;51.444;-2.606;2023-06-04T00:51:47;15.20;95.30
39951;DHT22;25629;51.444;-2.606;2023-06-04T00:54:13;15.20;99.90
39951;DHT22;25629;51.444;-2.606;2023-06-04T00:56:42;15.10;99.90
39951;DHT22;25629;51.444;-2.606;2023-06-04T00:59:08;15.10;99.90
39951;DHT22;25629;51.444;-2.606;2023-06-04T01:01:59;15.10;99.90
39951;DHT22;25629;51.444;-2.606;2023-06-04T01:07:07;15.00;99.90
39951;DHT22;25629;51.444;-2.606;2023-06-04T01:09:36;14.90;99.90
39951;DHT22;25629;51.444;-2.606;2023-06-04T01:12:06;14.80;99.90
39951;DHT22;25629;51.444;-2.606;2023-06-04T01:14:32;14.80;99.90
39951;DHT22;25629;51.444;-2.606;2023-06-04T01:22:44;14.70;99.90
39951;DHT22;25629;51.444;-2.606;2023-06-04T01:25:21;14.70;99.90
39951;DHT22;25629;51.444;-2.606;2023-06-04T01:27:50;14.60;99.90
39951;DHT22;25629;51.444;-2.606;2023-06-04T01:30:23;14.60;99.90
39951;DHT22;25629;51.444;-2.606;2023-06-04T01:32:49;14.50;99.90
39951;DHT22;25629;51.444;-2.606;2023-06-04T01:35:15;14.40;1.00
39951;DHT22;25629;51.444;-2.606;2023-06-04T01:37:40;14.40;1.00
39951;DHT22;25629;51.444;-2.606;2023-06-04T01:40:06;14.30;93.20
39951;DHT22;25629;51.444;-2.606;2023-06-04T01:42:34;14.30;99.90
39951;DHT22;25629;51.444;-2.606;2023-06-04T01:45:00;14.30;99.90
39951;DHT22;25629;51.444;-2.606;2023-06-04T01:47:26;14.20;99.90
39951;DHT22;25629;51.444;-2.606;2023-06-04T01:49:51;14.20;99.90
39951;DHT22;25629;51.444;-2.606;2023-06-04T01:52:17;14.10;99.90
39951;DHT22;25629;51.444;-2.606;2023-06-04T01:54:43;14.10;99.90
39951;DHT22;25629;51.444;-2.606;2023-06-04T01:57:09;14.00;99.90
39951;DHT22;25629;51.444;-2.606;2023-06-04T01:59:35;14.00;1.00
39951;DHT22;25629;51.444;-2.606;2023-06-04T02:02:02;13.90;3.80
39951;DHT22;25629;51.444;-2.606;2023-06-04T02:04:28;13.90;66.80
39951;DHT22;25629;51.444;-2.606;2023-06-04T02:06:54;13.80;99.90
39951;DHT22;25629;51.444;-2.606;2023-06-04T02:09:21;13.80;99.90
39951;DHT22;25629;51.444;-2.606;2023-06-04T02:11:46;13.90;99.90
39951;DHT22;25629;51.444;-2.606;2023-06-04T02:14:12;13.90;99.90
39951;DHT22;25629;51.444;-2.606;2023-06-04T02:16:38;13.90;99.90
39951;DHT22;25629;51.444;-2.606;2023-06-04T02:19:04;13.80;99.90
39951;DHT22;25629;51.444;-2.606;2023-06-04T02:21:30;13.80;99.90
39951;DHT22;25629;51.444;-2.606;2023-06-04T02:23:55;13.70;99.90
39951;DHT22;25629;51.444;-2.606;2023-06-04T02:26:21;13.70;99.90
39951;DHT22;25629;51.444;-2.606;2023-06-04T02:28:48;13.70;1.00
39951;DHT22;25629;51.444;-2.606;2023-06-04T02:31:14;13.70;99.90
39951;DHT22;25629;51.444;-2.606;2023-06-04T02:33:40;13.60;1.00
39951;DHT22;25629;51.444;-2.606;2023-06-04T02:36:06;13.50;99.90
39951;DHT22;25629;51.444;-2.606;2023-06-04T02:38:31;13.40;99.90
39951;DHT22;25629;51.444;-2.606;2023-06-04T02:40:57;13.30;1.00
39951;DHT22;25629;51.444;-2.606;2023-06-04T02:43:23;13.30;99.90
39951;DHT22;25629;51.444;-2.606;2023-06-04T02:45:48;13.30;99.90
39951;DHT22;25629;51.444;-2.606;2023-06-04T02:48:14;13.30;1.00
39951;DHT22;25629;51.444;-2.606;2023-06-04T02:50:40;13.30;1.00
39951;DHT22;25629;51.444;-2.606;2023-06-04T02:53:08;13.20;99.90
39951;DHT22;25629;51.444;-2.606;2023-06-04T02:55:33;13.20;99.90
39951;DHT22;25629;51.444;-2.606;2023-06-04T02:57:59;13.10;99.90
39951;DHT22;25629;51.444;-2.606;2023-06-04T03:00:26;13.10;44.60
39951;DHT22;25629;51.444;-2.606;2023-06-04T03:02:51;13.20;1.00
39951;DHT22;25629;51.444;-2.606;2023-06-04T03:05:17;13.10;99.90
39951;DHT22;25629;51.444;-2.606;2023-06-04T03:07:44;13.10;99.90
39951;DHT22;25629;51.444;-2.606;2023-06-04T03:10:11;13.10;99.90
39951;DHT22;25629;51.444;-2.606;2023-06-04T03:12:37;13.10;99.90
39951;DHT22;25629;51.444;-2.606;2023-06-04T03:15:03;13.00;1.00
39951;DHT22;25629;51.444;-2.606;2023-06-04T03:17:30;13.00;92.90
39951;DHT22;25629;51.444;-2.606;2023-06-04T03:19:57;13.00;1.00
39951;DHT22;25629;51.444;-2.606;2023-06-04T03:22:22;13.00;1.00
39951;DHT22;25629;51.444;-2.606;2023-06-04T03:24:49;13.00;99.90
39951;DHT22;25629;51.444;-2.606;2023-06-04T03:27:14;13.00;93.20
39951;DHT22;25629;51.444;-2.606;2023-06-04T03:29:40;13.00;49.00
39951;DHT22;25629;51.444;-2.606;2023-06-04T03:32:06;13.00;1.00
39951;DHT22;25629;51.444;-2.606;2023-06-04T03:34:32;13.00;1.00
39951;DHT22;25629;51.444;-2.606;2023-06-04T03:36:58;13.00;99.90
39951;DHT22;25629;51.444;-2.606;2023-06-04T03:39:25;12.90;9.50
39951;DHT22;25629;51.444;-2.606;2023-06-04T03:41:51;12.80;1.00
39951;DHT22;25629;51.444;-2.606;2023-06-04T03:44:17;12.80;99.90
39951;DHT22;25629;51.444;-2.606;2023-06-04T03:46:44;12.80;99.90
39951;DHT22;25629;51.444;-2.606;2023-06-04T03:49:11;12.70;99.90
39951;DHT22;25629;51.444;-2.606;2023-06-04T03:51:40;12.60;1.00
39951;DHT22;25629;51.444;-2.606;2023-06-04T03:54:06;12.60;99.90
39951;DHT22;25629;51.444;-2.606;2023-06-04T03:56:32;12.50;1.00
39951;DHT22;25629;51.444;-2.606;2023-06-04T03:58:58;12.40;99.90
39951;DHT22;25629;51.444;-2.606;2023-06-04T04:01:24;12.40;1.00
39951;DHT22;25629;51.444;-2.606;2023-06-04T04:03:51;12.50;88.40
39951;DHT22;25629;51.444;-2.606;2023-06-04T04:06:17;12.50;1.00
39951;DHT22;25629;51.444;-2.606;2023-06-04T04:08:43;12.50;99.90
39951;DHT22;25629;51.444;-2.606;2023-06-04T04:11:13;12.50;99.90
39951;DHT22;25629;51.444;-2.606;2023-06-04T04:13:39;12.50;1.00
39951;DHT22;25629;51.444;-2.606;2023-06-04T04:16:05;12.40;99.90
39951;DHT22;25629;51.444;-2.606;2023-06-04T04:18:34;12.40;1.50
39951;DHT22;25629;51.444;-2.606;2023-06-04T04:21:00;12.20;1.00
39951;DHT22;25629;51.444;-2.606;2023-06-04T04:23:27;12.20;1.00
39951;DHT22;25629;51.444;-2.606;2023-06-04T04:25:53;12.20;99.90
39951;DHT22;25629;51.444;-2.606;2023-06-04T04:28:22;12.20;99.90
39951;DHT22;25629;51.444;-2.606;2023-06-04T04:30:48;12.10;32.20
39951;DHT22;25629;51.444;-2.606;2023-06-04T04:33:14;12.20;99.90
39951;DHT22;25629;51.444;-2.606;2023-06-04T04:35:44;12.10;99.90
39951;DHT22;25629;51.444;-2.606;2023-06-04T04:38:10;12.20;99.90
39951;DHT22;25629;51.444;-2.606;2023-06-04T04:40:36;12.20;99.90
39951;DHT22;25629;51.444;-2.606;2023-06-04T04:43:02;12.20;99.90
39951;DHT22;25629;51.444;-2.606;2023-06-04T04:45:29;12.20;99.90
39951;DHT22;25629;51.444;-2.606;2023-06-04T04:47:54;12.20;99.90
39951;DHT22;25629;51.444;-2.606;2023-06-04T04:50:20;12.20;99.90
39951;DHT22;25629;51.444;-2.606;2023-06-04T04:52:46;12.20;20.60
39951;DHT22;25629;51.444;-2.606;2023-06-04T04:55:12;12.20;99.90
39951;DHT22;25629;51.444;-2.606;2023-06-04T04:57:38;12.10;99.90
39951;DHT22;25629;51.444;-2.606;2023-06-04T05:00:04;12.20;66.40
39951;DHT22;25629;51.444;-2.606;2023-06-04T05:02:37;12.10;1.00
39951;DHT22;25629;51.444;-2.606;2023-06-04T05:05:03;12.00;1.00
39951;DHT22;25629;51.444;-2.606;2023-06-04T05:07:29;12.10;99.90
39951;DHT22;25629;51.444;-2.606;2023-06-04T05:09:55;12.10;99.90
39951;DHT22;25629;51.444;-2.606;2023-06-04T05:12:21;12.10;1.00
39951;DHT22;25629;51.444;-2.606;2023-06-04T05:14:46;12.20;99.90
39951;DHT22;25629;51.444;-2.606;2023-06-04T05:17:12;12.10;99.90
39951;DHT22;25629;51.444;-2.606;2023-06-04T05:19:39;12.10;99.90
39951;DHT22;25629;51.444;-2.606;2023-06-04T05:22:05;12.10;99.90
39951;DHT22;25629;51.444;-2.606;2023-06-04T05:24:34;12.10;99.90
39951;DHT22;25629;51.444;-2.606;2023-06-04T05:26:59;12.10;1.00
39951;DHT22;25629;51.444;-2.606;2023-06-04T05:29:25;12.10;78.80
39951;DHT22;25629;51.444;-2.606;2023-06-04T05:31:51;12.20;99.90
39951;DHT22;25629;51.444;-2.606;2023-06-04T05:34:16;12.30;99.90
39951;DHT22;25629;51.444;-2.606;2023-06-04T05:36:43;12.20;1.00
39951;DHT22;25629;51.444;-2.606;2023-06-04T05:39:10;12.20;99.90
39951;DHT22;25629;51.444;-2.606;2023-06-04T05:41:36;12.20;1.00
39951;DHT22;25629;51.444;-2.606;2023-06-04T05:44:02;12.20;99.90
39951;DHT22;25629;51.444;-2.606;2023-06-04T05:46:28;12.20;99.90
39951;DHT22;25629;51.444;-2.606;2023-06-04T05:48:53;12.30;18.80
39951;DHT22;25629;51.444;-2.606;2023-06-04T05:51:20;12.30;1.00
39951;DHT22;25629;51.444;-2.606;2023-06-04T05:53:46;12.30;99.90
39951;DHT22;25629;51.444;-2.606;2023-06-04T05:56:12;12.30;99.90
39951;DHT22;25629;51.444;-2.606;2023-06-04T05:58:37;12.30;99.90
39951;DHT22;25629;51.444;-2.606;2023-06-04T06:01:03;12.40;99.90
39951;DHT22;25629;51.444;-2.606;2023-06-04T06:03:29;12.30;99.90
39951;DHT22;25629;51.444;-2.606;2023-06-04T06:05:55;12.30;99.90
39951;DHT22;25629;51.444;-2.606;2023-06-04T06:08:22;12.40;99.90
39951;DHT22;25629;51.444;-2.606;2023-06-04T06:10:48;12.50;1.00
39951;DHT22;25629;51.444;-2.606;2023-06-04T06:13:14;12.60;1.00
39951;DHT22;25629;51.444;-2.606;2023-06-04T06:15:40;12.50;1.00
39951;DHT22;25629;51.444;-2.606;2023-06-04T06:18:06;12.50;1.00
39951;DHT22;25629;51.444;-2.606;2023-06-04T06:20:32;12.50;99.90
39951;DHT22;25629;51.444;-2.606;2023-06-04T06:23:00;12.50;99.90
39951;DHT22;25629;51.444;-2.606;2023-06-04T06:25:30;12.50;99.90
39951;DHT22;25629;51.444;-2.606;2023-06-04T06:27:56;12.50;99.90
39951;DHT22;25629;51.444;-2.606;2023-06-04T06:30:22;12.60;99.90
39951;DHT22;25629;51.444;-2.606;2023-06-04T06:32:48;12.70;99.90
39951;DHT22;25629;51.444;-2.606;2023-06-04T06:35:15;12.90;90.20
39951;DHT22;25629;51.444;-2.606;2023-06-04T06:37:41;13.00;1.00
39951;DHT22;25629;51.444;-2.606;2023-06-04T06:40:09;12.90;99.90
39951;DHT22;25629;51.444;-2.606;2023-06-04T06:42:35;13.10;99.10
39951;DHT22;25629;51.444;-2.606;2023-06-04T06:45:01;13.20;90.90
39951;DHT22;25629;51.444;-2.606;2023-06-04T06:47:26;13.30;99.90
39951;DHT22;25629;51.444;-2.606;2023-06-04T06:49:52;13.40;1.00
39951;DHT22;25629;51.444;-2.606;2023-06-04T06:52:18;13.50;1.00
39951;DHT22;25629;51.444;-2.606;2023-06-04T06:54:45;13.50;99.90
39951;DHT22;25629;51.444;-2.606;2023-06-04T06:57:11;13.40;99.90
39951;DHT22;25629;51.444;-2.606;2023-06-04T06:59:37;13.40;1.00
39951;DHT22;25629;51.444;-2.606;2023-06-04T07:02:04;13.50;1.00
39951;DHT22;25629;51.444;-2.606;2023-06-04T07:04:30;13.60;99.90
39951;DHT22;25629;51.444;-2.606;2023-06-04T07:06:56;13.60;99.90
39951;DHT22;25629;51.444;-2.606;2023-06-04T07:09:21;13.70;99.90
39951;DHT22;25629;51.444;-2.606;2023-06-04T07:11:47;13.80;99.90
39951;DHT22;25629;51.444;-2.606;2023-06-04T07:14:13;13.90;10.60
39951;DHT22;25629;51.444;-2.606;2023-06-04T07:16:39;14.10;1.00
39951;DHT22;25629;51.444;-2.606;2023-06-04T07:19:05;14.10;1.00
39951;DHT22;25629;51.444;-2.606;2023-06-04T07:21:30;14.20;99.90
39951;DHT22;25629;51.444;-2.606;2023-06-04T07:23:56;14.40;99.90
39951;DHT22;25629;51.444;-2.606;2023-06-04T07:26:22;14.50;99.90
39951;DHT22;25629;51.444;-2.606;2023-06-04T07:28:47;14.60;99.90
39951;DHT22;25629;51.444;-2.606;2023-06-04T07:31:16;14.70;99.90
39951;DHT22;25629;51.444;-2.606;2023-06-04T07:33:43;14.90;92.30
39951;DHT22;25629;51.444;-2.606;2023-06-04T07:36:15;15.10;59.90
39951;DHT22;25629;51.444;-2.606;2023-06-04T07:38:41;15.30;39.00
39951;DHT22;25629;51.444;-2.606;2023-06-04T07:41:06;15.30;15.70
39951;DHT22;25629;51.444;-2.606;2023-06-04T07:43:36;15.40;1.00
39951;DHT22;25629;51.444;-2.606;2023-06-04T07:46:05;15.40;1.00
39951;DHT22;25629;51.444;-2.606;2023-06-04T07:48:31;15.50;1.00
39951;DHT22;25629;51.444;-2.606;2023-06-04T07:50:58;15.60;1.00
39951;DHT22;25629;51.444;-2.606;2023-06-04T07:53:24;15.80;1.00
39951;DHT22;25629;51.444;-2.606;2023-06-04T07:55:49;16.10;1.00
39951;DHT22;25629;51.444;-2.606;2023-06-04T07:58:15;16.30;1.00
39951;DHT22;25629;51.444;-2.606;2023-06-04T08:00:41;16.40;1.00
39951;DHT22;25629;51.444;-2.606;2023-06-04T08:03:07;16.70;1.00
39951;DHT22;25629;51.444;-2.606;2023-06-04T08:05:32;16.70;1.00
39951;DHT22;25629;51.444;-2.606;2023-06-04T08:07:59;17.00;1.00
39951;DHT22;25629;51.444;-2.606;2023-06-04T08:10:24;17.10;1.00
39951;DHT22;25629;51.444;-2.606;2023-06-04T08:12:50;17.30;1.00
39951;DHT22;25629;51.444;-2.606;2023-06-04T08:15:16;17.60;1.00
39951;DHT22;25629;51.444;-2.606;2023-06-04T08:17:41;17.70;1.00
39951;DHT22;25629;51.444;-2.606;2023-06-04T08:20:07;17.90;99.90
39951;DHT22;25629;51.444;-2.606;2023-06-04T08:22:34;18.10;99.90
39951;DHT22;25629;51.444;-2.606;2023-06-04T08:25:00;18.30;99.90
39951;DHT22;25629;51.444;-2.606;2023-06-04T08:27:25;18.40;99.90
39951;DHT22;25629;51.444;-2.606;2023-06-04T08:29:51;18.30;99.90
39951;DHT22;25629;51.444;-2.606;2023-06-04T08:32:18;18.30;99.90
39951;DHT22;25629;51.444;-2.606;2023-06-04T08:34:44;18.60;99.90
39951;DHT22;25629;51.444;-2.606;2023-06-04T08:37:09;18.80;99.90
39951;DHT22;25629;51.444;-2.606;2023-06-04T08:39:35;19.00;99.90
39951;DHT22;25629;51.444;-2.606;2023-06-04T08:42:03;19.30;99.90
39951;DHT22;25629;51.444;-2.606;2023-06-04T08:44:30;19.40;99.90
39951;DHT22;25629;51.444;-2.606;2023-06-04T08:47:03;19.50;99.90
39951;DHT22;25629;51.444;-2.606;2023-06-04T08:49:33;19.60;99.90
39951;DHT22;25629;51.444;-2.606;2023-06-04T08:52:00;19.60;99.90
39951;DHT22;25629;51.444;-2.606;2023-06-04T08:54:25;19.30;99.90
39951;DHT22;25629;51.444;-2.606;2023-06-04T08:56:52;19.50;99.90
39951;DHT22;25629;51.444;-2.606;2023-06-04T08:59:17;19.70;99.90
39951;DHT22;25629;51.444;-2.606;2023-06-04T09:01:44;20.00;99.90
39951;DHT22;25629;51.444;-2.606;2023-06-04T09:04:10;20.30;99.90
39951;DHT22;25629;51.444;-2.606;2023-06-04T09:06:38;20.30;99.90
39951;DHT22;25629;51.444;-2.606;2023-06-04T09:09:05;20.20;99.90
39951;DHT22;25629;51.444;-2.606;2023-06-04T09:11:55;20.20;99.90
39951;DHT22;25629;51.444;-2.606;2023-06-04T09:14:21;20.30;99.90
39951;DHT22;25629;51.444;-2.606;2023-06-04T09:16:53;20.40;99.90
39951;DHT22;25629;51.444;-2.606;2023-06-04T09:19:21;20.70;99.90
39951;DHT22;25629;51.444;-2.606;2023-06-04T09:21:57;21.10;99.90
39951;DHT22;25629;51.444;-2.606;2023-06-04T09:24:38;21.20;99.90
39951;DHT22;25629;51.444;-2.606;2023-06-04T09:27:16;21.40;99.90
39951;DHT22;25629;51.444;-2.606;2023-06-04T09:29:52;21.80;99.90
39951;DHT22;25629;51.444;-2.606;2023-06-04T09:32:27;22.20;99.90
39951;DHT22;25629;51.444;-2.606;2023-06-04T09:34:53;22.20;99.90
39951;DHT22;25629;51.444;-2.606;2023-06-04T09:37:19;22.30;99.90
39951;DHT22;25629;51.444;-2.606;2023-06-04T09:39:56;22.40;99.90
39951;DHT22;25629;51.444;-2.606;2023-06-04T09:42:22;22.50;99.90
39951;DHT22;25629;51.444;-2.606;2023-06-04T09:44:48;22.60;99.90
39951;DHT22;25629;51.444;-2.606;2023-06-04T09:47:14;22.40;99.90
39951;DHT22;25629;51.444;-2.606;2023-06-04T09:49:49;22.10;99.90
39951;DHT22;25629;51.444;-2.606;2023-06-04T09:52:17;22.30;99.90
39951;DHT22;25629;51.444;-2.606;2023-06-04T09:54:42;22.30;99.90
39951;DHT22;25629;51.444;-2.606;2023-06-04T09:57:18;22.50;99.90
39951;DHT22;25629;51.444;-2.606;2023-06-04T09:59:45;22.60;99.90
39951;DHT22;25629;51.444;-2.606;2023-06-04T10:02:12;22.60;99.90
39951;DHT22;25629;51.444;-2.606;2023-06-04T10:04:42;23.00;99.90
39951;DHT22;25629;51.444;-2.606;2023-06-04T10:07:12;23.10;99.90
39951;DHT22;25629;51.444;-2.606;2023-06-04T10:09:39;22.90;99.90
39951;DHT22;25629;51.444;-2.606;2023-06-04T10:12:14;22.70;99.90
39951;DHT22;25629;51.444;-2.606;2023-06-04T10:15:25;23.00;99.90
39951;DHT22;25629;51.444;-2.606;2023-06-04T10:17:33;23.00;99.90
39951;DHT22;25629;51.444;-2.606;2023-06-04T10:20:01;23.50;99.90
39951;DHT22;25629;51.444;-2.606;2023-06-04T10:22:30;23.60;99.90
39951;DHT22;25629;51.444;-2.606;2023-06-04T10:24:56;23.80;99.90
39951;DHT22;25629;51.444;-2.606;2023-06-04T10:27:23;23.80;99.90
39951;DHT22;25629;51.444;-2.606;2023-06-04T10:29:49;23.90;99.90
39951;DHT22;25629;51.444;-2.606;2023-06-04T10:32:16;24.00;99.90
39951;DHT22;25629;51.444;-2.606;2023-06-04T10:34:42;24.00;99.90
39951;DHT22;25629;51.444;-2.606;2023-06-04T10:37:19;24.00;99.90
39951;DHT22;25629;51.444;-2.606;2023-06-04T10:39:54;24.10;99.90
39951;DHT22;25629;51.444;-2.606;2023-06-04T10:42:21;24.20;99.90
39951;DHT22;25629;51.444;-2.606;2023-06-04T10:44:48;24.10;99.90
39951;DHT22;25629;51.444;-2.606;2023-06-04T10:47:24;24.30;99.90
39951;DHT22;25629;51.444;-2.606;2023-06-04T10:49:51;24.20;99.90
39951;DHT22;25629;51.444;-2.606;2023-06-04T10:52:17;24.20;99.90
39951;DHT22;25629;51.444;-2.606;2023-06-04T10:54:45;24.50;99.90
39951;DHT22;25629;51.444;-2.606;2023-06-04T10:57:16;24.50;99.90
39951;DHT22;25629;51.444;-2.606;2023-06-04T10:59:54;24.60;99.90
39951;DHT22;25629;51.444;-2.606;2023-06-04T11:02:20;24.60;99.90
39951;DHT22;25629;51.444;-2.606;2023-06-04T11:04:46;24.70;99.90
39951;DHT22;25629;51.444;-2.606;2023-06-04T11:07:12;24.90;99.90
39951;DHT22;25629;51.444;-2.606;2023-06-04T11:09:48;24.70;99.90
39951;DHT22;25629;51.444;-2.606;2023-06-04T11:12:14;24.50;99.90
39951;DHT22;25629;51.444;-2.606;2023-06-04T11:14:40;24.50;99.90
39951;DHT22;25629;51.444;-2.606;2023-06-04T11:17:13;24.60;99.90
39951;DHT22;25629;51.444;-2.606;2023-06-04T11:19:40;24.80;99.90
39951;DHT22;25629;51.444;-2.606;2023-06-04T11:22:06;25.10;99.90
39951;DHT22;25629;51.444;-2.606;2023-06-04T11:24:35;25.20;99.90
39951;DHT22;25629;51.444;-2.606;2023-06-04T11:27:01;25.60;99.90
39951;DHT22;25629;51.444;-2.606;2023-06-04T11:29:28;25.70;99.90
39951;DHT22;25629;51.444;-2.606;2023-06-04T11:31:54;25.80;99.90
39951;DHT22;25629;51.444;-2.606;2023-06-04T11:36:49;26.10;99.90
39951;DHT22;25629;51.444;-2.606;2023-06-04T11:39:18;26.20;99.90
39951;DHT22;25629;51.444;-2.606;2023-06-04T11:41:45;26.00;99.90
39951;DHT22;25629;51.444;-2.606;2023-06-04T11:44:12;26.30;99.90
39951;DHT22;25629;51.444;-2.606;2023-06-04T11:46:48;26.50;99.90
39951;DHT22;25629;51.444;-2.606;2023-06-04T11:49:18;26.30;99.90
39951;DHT22;25629;51.444;-2.606;2023-06-04T11:51:51;26.00;99.90
39951;DHT22;25629;51.444;-2.606;2023-06-04T11:54:17;26.20;99.90
39951;DHT22;25629;51.444;-2.606;2023-06-04T11:56:44;26.40;99.90
39951;DHT22;25629;51.444;-2.606;2023-06-04T11:59:12;26.60;99.90
39951;DHT22;25629;51.444;-2.606;2023-06-04T12:01:47;26.40;99.90
39951;DHT22;25629;51.444;-2.606;2023-06-04T12:04:18;26.60;99.90
39951;DHT22;25629;51.444;-2.606;2023-06-04T12:06:55;26.90;99.90
39951;DHT22;25629;51.444;-2.606;2023-06-04T12:09:30;26.90;99.90
39951;DHT22;25629;51.444;-2.606;2023-06-04T12:12:02;27.00;99.90
39951;DHT22;25629;51.444;-2.606;2023-06-04T12:14:28;27.30;99.90
39951;DHT22;25629;51.444;-2.606;2023-06-04T12:17:05;27.00;99.90
39951;DHT22;25629;51.444;-2.606;2023-06-04T12:19:30;26.90;99.90
39951;DHT22;25629;51.444;-2.606;2023-06-04T12:22:04;26.80;99.90
39951;DHT22;25629;51.444;-2.606;2023-06-04T12:24:34;26.90;99.90
39951;DHT22;25629;51.444;-2.606;2023-06-04T12:27:05;27.00;99.90
39951;DHT22;25629;51.444;-2.606;2023-06-04T12:29:32;27.10;99.90
39951;DHT22;25629;51.444;-2.606;2023-06-04T12:32:11;27.50;99.90
39951;DHT22;25629;51.444;-2.606;2023-06-04T12:34:41;27.80;99.90
39951;DHT22;25629;51.444;-2.606;2023-06-04T12:37:07;27.80;99.90
39951;DHT22;25629;51.444;-2.606;2023-06-04T12:39:36;28.00;99.90
39951;DHT22;25629;51.444;-2.606;2023-06-04T12:42:06;28.20;99.90
39951;DHT22;25629;51.444;-2.606;2023-06-04T12:44:35;28.30;99.90
39951;DHT22;25629;51.444;-2.606;2023-06-04T12:47:01;28.40;99.90
39951;DHT22;25629;51.444;-2.606;2023-06-04T12:49:27;28.70;99.90
39951;DHT22;25629;51.444;-2.606;2023-06-04T12:51:53;29.00;99.90
39951;DHT22;25629;51.444;-2.606;2023-06-04T12:54:19;29.20;99.90
39951;DHT22;25629;51.444;-2.606;2023-06-04T12:56:45;29.90;99.90
39951;DHT22;25629;51.444;-2.606;2023-06-04T12:59:12;30.20;99.90
39951;DHT22;25629;51.444;-2.606;2023-06-04T13:01:37;30.40;99.90
39951;DHT22;25629;51.444;-2.606;2023-06-04T13:04:04;30.40;99.90
39951;DHT22;25629;51.444;-2.606;2023-06-04T13:06:30;29.90;99.90
39951;DHT22;25629;51.444;-2.606;2023-06-04T13:08:56;29.60;99.90
39951;DHT22;25629;51.444;-2.606;2023-06-04T13:11:21;29.40;99.90
39951;DHT22;25629;51.444;-2.606;2023-06-04T13:13:48;29.60;99.90
39951;DHT22;25629;51.444;-2.606;2023-06-04T13:16:14;29.80;99.90
39951;DHT22;25629;51.444;-2.606;2023-06-04T13:18:39;29.90;99.90
39951;DHT22;25629;51.444;-2.606;2023-06-04T13:21:05;29.80;99.90
39951;DHT22;25629;51.444;-2.606;2023-06-04T13:23:31;30.20;99.90
39951;DHT22;25629;51.444;-2.606;2023-06-04T13:25:57;30.50;99.90
39951;DHT22;25629;51.444;-2.606;2023-06-04T13:28:23;30.80;99.90
39951;DHT22;25629;51.444;-2.606;2023-06-04T13:30:49;30.30;99.90
39951;DHT22;25629;51.444;-2.606;2023-06-04T13:33:14;30.40;99.90
39951;DHT22;25629;51.444;-2.606;2023-06-04T13:35:40;30.50;99.90
39951;DHT22;25629;51.444;-2.606;2023-06-04T13:38:07;30.90;99.90
39951;DHT22;25629;51.444;-2.606;2023-06-04T13:40:36;30.80;99.90
39951;DHT22;25629;51.444;-2.606;2023-06-04T13:43:02;30.80;99.90
39951;DHT22;25629;51.444;-2.606;2023-06-04T13:45:28;31.20;99.90
39951;DHT22;25629;51.444;-2.606;2023-06-04T13:47:54;31.10;99.90
39951;DHT22;25629;51.444;-2.606;2023-06-04T13:50:20;31.50;99.90
39951;DHT22;25629;51.444;-2.606;2023-06-04T13:52:45;31.60;99.90
39951;DHT22;25629;51.444;-2.606;2023-06-04T13:55:12;31.30;99.90
39951;DHT22;25629;51.444;-2.606;2023-06-04T13:57:39;31.30;99.90
39951;DHT22;25629;51.444;-2.606;2023-06-04T14:00:05;31.50;99.90
39951;DHT22;25629;51.444;-2.606;2023-06-04T14:02:32;31.80;99.90
39951;DHT22;25629;51.444;-2.606;2023-06-04T14:04:57;31.90;99.90
39951;DHT22;25629;51.444;-2.606;2023-06-04T14:07:23;31.50;99.90
39951;DHT22;25629;51.444;-2.606;2023-06-04T14:09:49;31.70;99.90
39951;DHT22;25629;51.444;-2.606;2023-06-04T14:12:20;31.60;99.90
39951;DHT22;25629;51.444;-2.606;2023-06-04T14:14:46;31.70;99.90
39951;DHT22;25629;51.444;-2.606;2023-06-04T14:17:12;32.00;99.90
39951;DHT22;25629;51.444;-2.606;2023-06-04T14:19:39;32.00;99.90
39951;DHT22;25629;51.444;-2.606;2023-06-04T14:22:05;32.20;99.90
39951;DHT22;25629;51.444;-2.606;2023-06-04T14:24:31;31.90;99.90
39951;DHT22;25629;51.444;-2.606;2023-06-04T14:26:57;32.30;99.90
39951;DHT22;25629;51.444;-2.606;2023-06-04T14:29:23;32.70;99.90
39951;DHT22;25629;51.444;-2.606;2023-06-04T14:31:49;33.20;99.90
39951;DHT22;25629;51.444;-2.606;2023-06-04T14:34:14;33.10;99.90
39951;DHT22;25629;51.444;-2.606;2023-06-04T14:36:41;33.00;99.90
39951;DHT22;25629;51.444;-2.606;2023-06-04T14:39:06;33.00;99.90
39951;DHT22;25629;51.444;-2.606;2023-06-04T14:41:32;33.30;99.90
39951;DHT22;25629;51.444;-2.606;2023-06-04T14:43:58;33.40;99.90
39951;DHT22;25629;51.444;-2.606;2023-06-04T14:46:25;33.50;99.90
39951;DHT22;25629;51.444;-2.606;2023-06-04T14:48:51;33.70;99.90
39951;DHT22;25629;51.444;-2.606;2023-06-04T14:51:17;33.70;99.90
39951;DHT22;25629;51.444;-2.606;2023-06-04T14:53:42;34.10;99.90
39951;DHT22;25629;51.444;-2.606;2023-06-04T14:56:08;34.10;99.90
39951;DHT22;25629;51.444;-2.606;2023-06-04T14:58:34;33.80;99.90
39951;DHT22;25629;51.444;-2.606;2023-06-04T15:01:00;33.60;99.90
39951;DHT22;25629;51.444;-2.606;2023-06-04T15:03:29;33.20;99.90
39951;DHT22;25629;51.444;-2.606;2023-06-04T15:05:55;32.90;99.90
39951;DHT22;25629;51.444;-2.606;2023-06-04T15:08:21;32.50;99.90
39951;DHT22;25629;51.444;-2.606;2023-06-04T15:10:47;32.70;99.90
39951;DHT22;25629;51.444;-2.606;2023-06-04T15:13:12;32.40;99.90
39951;DHT22;25629;51.444;-2.606;2023-06-04T15:15:38;32.50;99.90
39951;DHT22;25629;51.444;-2.606;2023-06-04T15:18:04;32.70;99.90
39951;DHT22;25629;51.444;-2.606;2023-06-04T15:20:34;33.20;99.90
39951;DHT22;25629;51.444;-2.606;2023-06-04T15:23:00;33.50;99.90
39951;DHT22;25629;51.444;-2.606;2023-06-04T15:25:26;33.90;99.90
39951;DHT22;25629;51.444;-2.606;2023-06-04T15:27:52;34.40;99.90
39951;DHT22;25629;51.444;-2.606;2023-06-04T15:30:17;35.10;99.90